Terminal Aerodrome Forecast
Issued by NWS

Home | Current Version | Previous Version | Text Only | Print | Product List | Glossary Off
Versions: 1 2 3 4 5 6 7 8 9 10 11 12 13

000
FTUS43 KICT 141600 AAA
TAFCNU
TAF AMD
KCNU 141655Z 1417/1512 34020G30KT 5SM -SN OVC016
     FM141800 34018G25KT P6SM OVC040
     FM150100 VRB03KT P6SM SKC=

USA.gov is the U.S. government's official web portal to all federal, state and local government web resources and services.